METAR Data
IDs: Format: Raw Decoded Include TAF

Data at: 2151 UTC 02 Aug 2021

LFPB 022130Z AUTO 27004KT 9999 -RA ///CB 17/16 Q1015 BECMG BKN040